Time;durP1;ratioP1;P1;durP2;ratioP2;P2;SDS_P1;SDS_P2;PMS_P1;PMS_P2;Temp;Humidity;BMP_temperature;BMP_pressure;BME280_temperature;BME280_humidity;BME280_pressure;Samples;Min_cycle;Max_cycle;Signal;HPM_P1;HPM_P2
2022/12/16 00:00:27;;;;;;;;;;;-3274.40;48.80;;;;;;5020853;28;19921;-88
2022/12/16 00:02:53;;;;;;;;;;;-3274.40;48.70;;;;;;5028891;28;19920;-86
2022/12/16 00:05:19;;;;;;;;;;;-3274.30;48.60;;;;;;5030862;28;19967;-86
2022/12/16 00:07:45;;;;;;;;;;;-3274.30;48.70;;;;;;5031940;28;19920;-86
2022/12/16 00:10:10;;;;;;;;;;;-3274.30;48.70;;;;;;5031460;28;20283;-86
2022/12/16 00:12:36;;;;;;;;;;;-3274.30;48.70;;;;;;5030390;28;19913;-86
2022/12/16 00:15:01;;;;;;;;;;;-3274.30;48.70;;;;;;5030185;28;19980;-87
2022/12/16 00:17:27;;;;;;;;;;;-3274.20;48.60;;;;;;5020897;28;19922;-87
2022/12/16 00:19:52;;;;;;;;;;;-3274.20;48.60;;;;;;5030367;28;19917;-87
2022/12/16 00:22:18;;;;;;;;;;;-3274.20;48.50;;;;;;5025886;28;20380;-86
2022/12/16 00:24:43;;;;;;;;;;;-3274.20;48.50;;;;;;5028856;28;19913;-87
2022/12/16 00:27:09;;;;;;;;;;;-3274.10;48.50;;;;;;5017433;28;20308;-86
2022/12/16 00:29:34;;;;;;;;;;;-3274.10;48.50;;;;;;5015687;28;19945;-86
2022/12/16 00:32:01;;;;;;;;;;;-3274.00;48.40;;;;;;5012901;28;20000;-86
2022/12/16 00:34:27;;;;;;;;;;;-3274.10;48.40;;;;;;5015947;28;19921;-87
2022/12/16 00:36:52;;;;;;;;;;;-3274.00;48.50;;;;;;5034436;28;19913;-87
2022/12/16 00:39:18;;;;;;;;;;;-3273.90;48.50;;;;;;5031882;28;19917;-86
2022/12/16 00:41:43;;;;;;;;;;;-3273.90;48.50;;;;;;5030991;28;19921;-88
2022/12/16 00:44:09;;;;;;;;;;;-3273.90;48.50;;;;;;5032704;28;19932;-88
2022/12/16 00:46:34;;;;;;;;;;;-3273.90;48.30;;;;;;5034256;28;19923;-87
2022/12/16 00:49:00;;;;;;;;;;;-3273.80;48.20;;;;;;5018767;28;19948;-87
2022/12/16 00:51:25;;;;;;;;;;;-3273.80;48.40;;;;;;5032153;28;19943;-86
2022/12/16 00:53:51;;;;;;;;;;;-3273.80;48.60;;;;;;5030970;28;19925;-87
2022/12/16 00:56:19;;;;;;;;;;;-3273.80;48.80;;;;;;5025949;28;19917;-87
2022/12/16 00:58:45;;;;;;;;;;;-3273.80;48.90;;;;;;5023094;28;19921;-87
2022/12/16 01:01:10;;;;;;;;;;;-3273.90;48.80;;;;;;5015984;28;19958;-87
2022/12/16 01:03:36;;;;;;;;;;;-3273.90;48.70;;;;;;5012303;28;19943;-87
2022/12/16 01:06:06;;;;;;;;;;;-3273.80;48.60;;;;;;5012010;28;19914;-87
2022/12/16 01:08:32;;;;;;;;;;;-3273.80;48.50;;;;;;5017957;28;19917;-87
2022/12/16 01:10:57;;;;;;;;;;;-3273.80;48.40;;;;;;5031536;28;19921;-86
2022/12/16 01:13:23;;;;;;;;;;;-3273.70;48.30;;;;;;5019353;28;20276;-86
2022/12/16 01:15:49;;;;;;;;;;;-3273.70;48.40;;;;;;5027003;28;20367;-86
2022/12/16 01:18:14;;;;;;;;;;;-3273.70;48.50;;;;;;5024730;28;19917;-87
2022/12/16 01:20:40;;;;;;;;;;;-3273.70;48.30;;;;;;5011792;28;19920;-86
2022/12/16 01:23:05;;;;;;;;;;;-3273.60;48.30;;;;;;5012468;28;19914;-88
2022/12/16 01:25:31;;;;;;;;;;;-3273.70;48.20;;;;;;5023630;28;19920;-86
2022/12/16 01:27:56;;;;;;;;;;;-3273.60;48.20;;;;;;5028002;28;19917;-87
2022/12/16 01:30:22;;;;;;;;;;;-3273.60;48.20;;;;;;5031132;28;19959;-86
2022/12/16 01:32:48;;;;;;;;;;;-3273.60;48.20;;;;;;5030015;28;19924;-86
2022/12/16 01:35:13;;;;;;;;;;;-3273.60;48.30;;;;;;5033145;28;19914;-87
2022/12/16 01:37:39;;;;;;;;;;;-3273.60;48.30;;;;;;5019722;28;20427;-86
2022/12/16 01:40:05;;;;;;;;;;;-3273.60;48.50;;;;;;5010578;28;19913;-88
2022/12/16 01:42:32;;;;;;;;;;;-3273.70;48.70;;;;;;5011430;28;19975;-87
2022/12/16 01:45:17;;;;;;;;;;;-3273.70;48.80;;;;;;5030282;28;19960;-88
2022/12/16 01:47:43;;;;;;;;;;;-3273.70;48.70;;;;;;5022064;28;19913;-86
2022/12/16 01:50:10;;;;;;;;;;;-3273.70;48.60;;;;;;5018735;28;20372;-87
2022/12/16 01:52:39;;;;;;;;;;;-3273.70;48.70;;;;;;5029798;28;19917;-87
2022/12/16 01:55:04;;;;;;;;;;;-3273.70;48.90;;;;;;5034406;28;19917;-87
2022/12/16 01:57:35;;;;;;;;;;;-3273.70;49.10;;;;;;5033668;28;19917;-87
2022/12/16 02:00:01;;;;;;;;;;;-3273.70;49.40;;;;;;5029435;28;19917;-86
2022/12/16 02:02:27;;;;;;;;;;;-3273.70;49.20;;;;;;5032454;28;20387;-86
2022/12/16 02:07:37;;;;;;;;;;;-3273.70;48.70;;;;;;5018164;28;20284;-88
2022/12/16 02:10:03;;;;;;;;;;;-3273.60;48.40;;;;;;5011869;28;19936;-87
2022/12/16 02:12:35;;;;;;;;;;;-3273.60;48.40;;;;;;5015857;28;19917;-87
2022/12/16 02:15:12;;;;;;;;;;;-3273.60;48.30;;;;;;5031619;28;19929;-86
2022/12/16 02:17:46;;;;;;;;;;;-3273.50;48.20;;;;;;5025715;28;19917;-87
2022/12/16 02:20:11;;;;;;;;;;;-3273.50;48.20;;;;;;5028474;28;20012;-85
2022/12/16 02:22:46;;;;;;;;;;;-3273.50;48.20;;;;;;5029203;28;20015;-85
2022/12/16 02:25:14;;;;;;;;;;;-3273.50;48.10;;;;;;5028825;28;19921;-86
2022/12/16 02:27:49;;;;;;;;;;;-3273.40;48.10;;;;;;5028243;28;20529;-87
2022/12/16 02:30:33;;;;;;;;;;;-3273.40;48.10;;;;;;5025600;28;19918;-86
2022/12/16 02:32:58;;;;;;;;;;;-3273.40;48.10;;;;;;5024779;28;20479;-86
2022/12/16 02:35:29;;;;;;;;;;;-3273.30;48.00;;;;;;5028456;28;20004;-87
2022/12/16 02:37:54;;;;;;;;;;;-3273.30;48.00;;;;;;5027903;28;19924;-86
2022/12/16 02:40:26;;;;;;;;;;;-3273.30;47.80;;;;;;5030715;28;19917;-88
2022/12/16 02:43:06;;;;;;;;;;;-3273.30;47.90;;;;;;5028398;28;19927;-86
2022/12/16 02:45:32;;;;;;;;;;;-3273.30;48.30;;;;;;5028889;28;20010;-85
2022/12/16 02:47:58;;;;;;;;;;;-3273.30;48.50;;;;;;5025722;28;19921;-87
2022/12/16 02:50:26;;;;;;;;;;;-3273.30;48.70;;;;;;5021802;28;20292;-87
2022/12/16 02:52:53;;;;;;;;;;;-3273.30;48.50;;;;;;5028165;28;19992;-87
2022/12/16 02:55:19;;;;;;;;;;;-3273.20;48.40;;;;;;5028454;28;19944;-88
2022/12/16 02:57:51;;;;;;;;;;;-3273.20;48.30;;;;;;5025031;28;19924;-87
2022/12/16 03:00:18;;;;;;;;;;;-3273.20;48.10;;;;;;5031298;28;19964;-86
2022/12/16 03:02:56;;;;;;;;;;;-3273.20;48.00;;;;;;5032471;28;19916;-87
2022/12/16 03:05:25;;;;;;;;;;;-3273.20;48.00;;;;;;5012403;28;19917;-87
2022/12/16 03:07:51;;;;;;;;;;;-3273.10;47.90;;;;;;5028518;28;19913;-87
2022/12/16 03:10:20;;;;;;;;;;;-3273.20;47.80;;;;;;5030441;28;19952;-87
2022/12/16 03:12:45;;;;;;;;;;;-3273.20;47.80;;;;;;5028475;28;19913;-84
2022/12/16 03:15:13;;;;;;;;;;;-3273.10;47.90;;;;;;5028063;28;19996;-87
2022/12/16 03:17:38;;;;;;;;;;;-3273.10;48.20;;;;;;5015859;28;19913;-87
2022/12/16 03:20:07;;;;;;;;;;;-3273.20;48.30;;;;;;5029305;28;19917;-87
2022/12/16 03:22:35;;;;;;;;;;;-3273.10;48.30;;;;;;5030454;28;20379;-85
2022/12/16 03:25:00;;;;;;;;;;;-3273.10;48.10;;;;;;5026796;28;20288;-87
2022/12/16 03:27:45;;;;;;;;;;;-3273.20;48.00;;;;;;5029761;28;19913;-87
2022/12/16 03:30:18;;;;;;;;;;;-3273.10;48.00;;;;;;5029704;28;20008;-88
2022/12/16 03:32:49;;;;;;;;;;;-3273.10;47.90;;;;;;5028200;28;20444;-86
2022/12/16 03:35:20;;;;;;;;;;;-3273.00;47.80;;;;;;5023623;28;19970;-86
2022/12/16 03:37:48;;;;;;;;;;;-3273.10;47.70;;;;;;5026304;28;20368;-87
2022/12/16 03:40:14;;;;;;;;;;;-3273.00;47.70;;;;;;5031276;28;19917;-87
2022/12/16 03:42:41;;;;;;;;;;;-3273.00;47.90;;;;;;5024811;28;19925;-86
2022/12/16 03:45:07;;;;;;;;;;;-3273.00;47.80;;;;;;5028055;28;19913;-86
2022/12/16 03:47:32;;;;;;;;;;;-3273.00;47.70;;;;;;5029205;28;19920;-86
2022/12/16 03:49:58;;;;;;;;;;;-3273.00;47.70;;;;;;5030467;28;20116;-86
2022/12/16 03:52:23;;;;;;;;;;;-3273.00;47.70;;;;;;5028687;28;19948;-86
2022/12/16 03:54:49;;;;;;;;;;;-3273.00;47.90;;;;;;5025001;28;19917;-85
2022/12/16 03:57:14;;;;;;;;;;;-3272.90;48.30;;;;;;5028238;28;20371;-86
2022/12/16 03:59:40;;;;;;;;;;;-3273.00;48.30;;;;;;5029663;28;20439;-87
2022/12/16 04:02:05;;;;;;;;;;;-3273.00;48.20;;;;;;5028090;28;19929;-86
2022/12/16 04:04:31;;;;;;;;;;;-3272.90;48.00;;;;;;5030926;28;19924;-87
2022/12/16 04:09:40;;;;;;;;;;;-3272.90;47.70;;;;;;5009841;28;19921;-87
2022/12/16 04:25:56;;;;;;;;;;;-3272.70;47.80;;;;;;5032665;28;20564;-87
2022/12/16 04:28:22;;;;;;;;;;;-3272.70;47.80;;;;;;5023455;28;19917;-89
2022/12/16 04:30:47;;;;;;;;;;;-3272.70;47.80;;;;;;5012930;28;19992;-88
